Time;durP1;ratioP1;P1;durP2;ratioP2;P2;SDS_P1;SDS_P2;PMS_P1;PMS_P2;Temp;Humidity;BMP_temperature;BMP_pressure;BME280_temperature;BME280_humidity;BME280_pressure;Samples;Min_cycle;Max_cycle;Signal;HPM_P1;HPM_P2
2021/10/22 00:01:39;;;;;;;34.07;21.57;;;;;;;12.49;59.31;100097.75;126301;1099;104271;-82
2021/10/22 00:04:08;;;;;;;35.30;21.43;;;;;;;12.48;59.47;100101.26;126319;1099;104172;-83
2021/10/22 00:06:36;;;;;;;33.83;21.03;;;;;;;12.46;59.22;100096.80;126327;1099;104166;-81
2021/10/22 00:09:04;;;;;;;34.40;20.77;;;;;;;12.39;59.35;100094.04;126302;1099;104156;-82
2021/10/22 00:11:32;;;;;;;35.70;21.50;;;;;;;12.35;59.45;100101.83;126333;1099;104111;-82
2021/10/22 00:13:59;;;;;;;34.20;20.30;;;;;;;12.33;59.50;100098.29;126300;1099;104278;-82
2021/10/22 00:16:27;;;;;;;34.30;21.33;;;;;;;12.29;59.58;100097.31;126340;1097;104677;-83
2021/10/22 00:18:55;;;;;;;34.27;20.80;;;;;;;12.25;59.67;100099.84;126273;1099;104133;-82
2021/10/22 00:21:23;;;;;;;33.53;20.40;;;;;;;12.19;59.94;100103.23;126293;1099;104137;-82
2021/10/22 00:23:51;;;;;;;36.40;21.73;;;;;;;12.17;59.79;100102.30;126222;1099;104149;-82
2021/10/22 00:26:19;;;;;;;32.00;19.87;;;;;;;12.16;60.07;100105.80;126330;1099;104185;-82
2021/10/22 00:28:47;;;;;;;31.17;19.43;;;;;;;12.14;60.03;100103.13;126383;1097;104165;-82
2021/10/22 00:31:16;;;;;;;32.17;19.57;;;;;;;12.11;60.20;100113.58;126304;1098;104150;-81
2021/10/22 00:33:44;;;;;;;31.43;18.77;;;;;;;12.09;60.42;100112.67;126333;1099;104325;-83
2021/10/22 00:36:12;;;;;;;30.10;19.33;;;;;;;12.10;60.11;100113.55;126331;1099;104271;-82
2021/10/22 00:38:41;;;;;;;30.80;18.97;;;;;;;12.09;60.36;100107.41;126331;1099;104274;-82
2021/10/22 00:41:10;;;;;;;33.00;19.63;;;;;;;12.09;60.58;100111.76;126338;1099;104262;-82
2021/10/22 00:43:38;;;;;;;31.23;18.90;;;;;;;12.09;60.32;100110.04;126348;1099;104506;-82
2021/10/22 00:46:06;;;;;;;33.40;19.50;;;;;;;12.07;60.39;100111.72;126317;1099;104332;-82
2021/10/22 00:48:37;;;;;;;33.97;19.80;;;;;;;12.04;60.46;100117.82;126309;1099;103540;-81
2021/10/22 00:51:09;;;;;;;32.10;20.05;;;;;;;12.01;60.64;100122.09;126312;1099;104268;-82
2021/10/22 00:53:39;;;;;;;33.07;20.53;;;;;;;11.99;60.67;100129.95;126340;1098;104156;-83
2021/10/22 00:56:09;;;;;;;33.63;19.40;;;;;;;11.99;60.72;100126.44;126323;1097;104255;-82
2021/10/22 00:58:41;;;;;;;33.60;19.77;;;;;;;11.99;60.92;100134.33;126330;1099;104316;-82
2021/10/22 01:01:10;;;;;;;29.60;18.10;;;;;;;12.00;60.97;100131.73;126360;1099;104316;-82
2021/10/22 01:03:38;;;;;;;32.20;19.10;;;;;;;11.99;60.72;100129.95;126305;1099;104153;-82
2021/10/22 01:06:06;;;;;;;33.70;20.13;;;;;;;11.99;60.73;100134.33;126337;1099;104159;-82
2021/10/22 01:08:35;;;;;;;31.47;19.03;;;;;;;11.99;60.91;100129.95;126346;1098;104405;-82
2021/10/22 01:11:04;;;;;;;29.47;18.10;;;;;;;11.98;60.87;100128.19;126348;1099;104140;-82
2021/10/22 01:13:32;;;;;;;30.30;18.07;;;;;;;11.97;60.92;100134.29;126323;1099;104156;-82
2021/10/22 01:16:01;;;;;;;31.10;18.85;;;;;;;11.97;61.04;100138.67;126272;1099;104210;-82
2021/10/22 01:18:29;;;;;;;33.43;19.33;;;;;;;11.96;61.14;100140.39;126340;1099;104146;-81
2021/10/22 01:20:58;;;;;;;36.17;19.77;;;;;;;11.96;60.93;100148.28;126322;1099;104272;-82
2021/10/22 01:23:26;;;;;;;37.80;19.10;;;;;;;11.96;61.19;100150.03;126273;1099;104146;-82
2021/10/22 01:25:54;;;;;;;34.70;19.20;;;;;;;11.95;61.19;100148.23;126366;1099;104146;-82
2021/10/22 01:28:23;;;;;;;33.20;18.77;;;;;;;11.93;61.03;100145.58;126345;1099;104146;-82
2021/10/22 01:30:51;;;;;;;36.23;20.13;;;;;;;11.92;61.24;100145.50;126287;1099;104139;-81
2021/10/22 01:33:20;;;;;;;34.80;18.77;;;;;;;11.88;61.09;100150.69;126297;1096;104579;-82
2021/10/22 01:35:50;;;;;;;37.47;17.87;;;;;;;11.85;61.25;100142.72;126178;1099;104363;-82
2021/10/22 01:38:20;;;;;;;35.80;17.83;;;;;;;11.83;61.32;100146.19;126156;1099;104281;-82
2021/10/22 01:40:53;;;;;;;35.20;18.87;;;;;;;11.81;61.46;100151.41;126184;1099;104159;-82
2021/10/22 01:43:22;;;;;;;38.87;19.67;;;;;;;11.80;61.37;100148.73;126133;1099;105056;-82
2021/10/22 01:45:50;;;;;;;34.73;18.73;;;;;;;11.78;61.37;100148.70;126213;1099;104422;-82
2021/10/22 01:48:19;;;;;;;40.77;18.50;;;;;;;11.76;61.35;100150.38;126183;1099;104370;-82
2021/10/22 01:50:47;;;;;;;36.23;18.70;;;;;;;11.73;61.49;100158.18;126203;1099;104299;-82
2021/10/22 01:53:17;;;;;;;32.70;19.93;;;;;;;11.69;61.44;100157.23;126118;1099;104284;-82
2021/10/22 01:55:45;;;;;;;36.03;18.53;;;;;;;11.65;61.58;100152.73;126240;1099;104222;-83
2021/10/22 01:58:13;;;;;;;33.00;17.77;;;;;;;11.64;61.71;100163.20;125447;1099;104393;-81
2021/10/22 02:00:41;;;;;;;31.23;18.13;;;;;;;11.57;61.78;100166.54;126189;1099;104181;-82
2021/10/22 02:03:09;;;;;;;34.73;19.27;;;;;;;11.53;61.50;100164.67;126112;1099;104188;-82
2021/10/22 02:05:37;;;;;;;31.50;18.13;;;;;;;11.49;61.65;100171.59;126192;1099;104287;-83
2021/10/22 02:08:05;;;;;;;30.80;18.30;;;;;;;11.46;62.24;100175.02;126254;1099;101889;-83
2021/10/22 02:10:33;;;;;;;32.13;18.97;;;;;;;11.43;62.28;100169.67;126200;1099;104441;-82
2021/10/22 02:13:02;;;;;;;33.37;19.07;;;;;;;11.39;61.75;100174.80;126148;1099;104168;-82
2021/10/22 02:15:29;;;;;;;35.60;20.73;;;;;;;11.28;61.85;100169.25;126305;1099;104188;-82
2021/10/22 02:17:58;;;;;;;41.43;24.53;;;;;;;11.19;62.25;100171.63;126283;1098;104216;-81
2021/10/22 02:20:27;;;;;;;41.17;24.43;;;;;;;11.13;62.42;100173.24;126246;1098;104213;-81
2021/10/22 02:22:55;;;;;;;43.17;24.87;;;;;;;11.05;62.21;100166.90;126234;1098;104169;-81
2021/10/22 02:25:23;;;;;;;42.50;23.80;;;;;;;10.97;62.50;100169.30;126303;1098;104469;-81
2021/10/22 02:27:52;;;;;;;43.03;24.77;;;;;;;10.92;62.75;100170.00;126331;1099;104140;-82
2021/10/22 02:30:21;;;;;;;43.43;24.57;;;;;;;10.91;62.72;100168.24;126287;1099;105305;-83
2021/10/22 02:32:49;;;;;;;40.30;23.90;;;;;;;10.90;62.79;100171.70;126231;1099;104146;-81
2021/10/22 02:35:17;;;;;;;41.07;23.77;;;;;;;10.89;62.51;100175.16;126344;1098;104137;-81
2021/10/22 02:37:46;;;;;;;47.40;24.77;;;;;;;10.87;62.55;100182.11;126338;1099;104265;-82
2021/10/22 02:40:15;;;;;;;40.73;23.87;;;;;;;10.86;62.76;100175.08;126328;1099;104343;-82
2021/10/22 02:42:43;;;;;;;38.17;24.13;;;;;;;10.85;62.42;100183.81;126299;1099;104271;-82
2021/10/22 02:45:13;;;;;;;39.20;23.37;;;;;;;10.84;62.83;100184.65;126324;1099;104155;-82
2021/10/22 02:47:40;;;;;;;42.80;24.87;;;;;;;10.84;62.58;100184.65;126276;1099;104194;-82
2021/10/22 02:50:09;;;;;;;39.77;22.83;;;;;;;10.85;63.14;100178.56;126331;1098;104344;-82
2021/10/22 02:52:37;;;;;;;40.60;22.50;;;;;;;10.85;63.00;100175.94;126355;1099;104153;-82
2021/10/22 02:55:07;;;;;;;40.63;24.27;;;;;;;10.84;63.17;100182.02;126205;1099;104156;-83
2021/10/22 02:57:35;;;;;;;44.50;25.17;;;;;;;10.83;63.03;100189.02;126363;1099;104143;-82
2021/10/22 03:00:05;;;;;;;42.10;23.63;;;;;;;10.83;62.79;100189.02;126383;1099;104136;-82
2021/10/22 03:02:33;;;;;;;42.73;24.43;;;;;;;10.82;63.37;100195.10;126294;1099;104139;-82
2021/10/22 03:05:02;;;;;;;43.17;24.13;;;;;;;10.75;63.46;100187.88;126288;1098;104146;-82
2021/10/22 03:07:30;;;;;;;44.07;24.17;;;;;;;10.76;63.35;100189.67;126338;1099;104136;-82
2021/10/22 03:09:58;;;;;;;45.50;24.27;;;;;;;10.77;63.26;100183.58;126373;1099;104143;-82
2021/10/22 03:12:26;;;;;;;41.77;23.67;;;;;;;10.78;63.25;100190.59;126304;1099;104160;-81
2021/10/22 03:14:54;;;;;;;41.97;24.10;;;;;;;10.78;63.05;100194.13;126271;1098;104334;-83
2021/10/22 03:17:22;;;;;;;46.20;23.77;;;;;;;10.76;63.00;100195.80;126296;1099;104217;-83
2021/10/22 03:19:50;;;;;;;42.50;22.17;;;;;;;10.75;63.53;100198.38;126326;1099;104136;-82
2021/10/22 03:22:18;;;;;;;41.43;24.37;;;;;;;10.71;63.30;100197.40;126313;1099;104192;-82
2021/10/22 03:24:46;;;;;;;42.47;22.93;;;;;;;10.70;63.36;100198.23;126295;1099;104210;-83
2021/10/22 03:27:15;;;;;;;44.80;23.63;;;;;;;10.69;63.63;100203.44;126336;1099;104213;-82
2021/10/22 03:29:44;;;;;;;46.27;24.53;;;;;;;10.64;63.75;100208.55;126339;1099;104213;-82
2021/10/22 03:32:13;;;;;;;41.67;24.27;;;;;;;10.60;63.62;100204.94;126296;1099;104271;-82
2021/10/22 03:34:41;;;;;;;46.20;23.37;;;;;;;10.55;63.14;100205.63;126205;1099;104162;-81
2021/10/22 03:37:12;;;;;;;44.27;24.33;;;;;;;10.51;64.09;100209.91;126285;1099;117731;-82
2021/10/22 03:39:41;;;;;;;38.80;22.83;;;;;;;10.51;64.04;100215.16;126281;1098;104326;-82
2021/10/22 03:42:12;;;;;;;48.60;24.83;;;;;;;10.50;64.02;100207.23;126346;1099;104188;-83
2021/10/22 03:44:42;;;;;;;43.50;24.13;;;;;;;10.47;63.60;100207.14;126318;1099;104127;-82
2021/10/22 03:47:11;;;;;;;42.03;23.30;;;;;;;10.46;63.56;100208.00;126214;1099;104367;-82
2021/10/22 03:49:43;;;;;;;43.37;23.30;;;;;;;10.43;64.14;100216.66;126307;1099;104274;-82
2021/10/22 03:52:11;;;;;;;44.63;23.30;;;;;;;10.39;64.08;100217.38;126328;1099;104576;-82
2021/10/22 03:54:39;;;;;;;39.27;22.83;;;;;;;10.38;64.03;100223.49;126362;1099;104171;-81
2021/10/22 03:57:07;;;;;;;45.37;22.87;;;;;;;10.38;63.89;100219.13;126123;1099;104185;-82
2021/10/22 03:59:37;;;;;;;38.03;22.80;;;;;;;10.35;63.78;100221.66;126278;1099;104229;-82
2021/10/22 04:02:05;;;;;;;42.53;23.20;;;;;;;10.30;63.83;100233.70;126319;1099;104691;-82
2021/10/22 04:04:34;;;;;;;44.57;24.17;;;;;;;10.29;64.21;100228.41;126282;1099;104275;-82
2021/10/22 04:07:03;;;;;;;48.53;23.80;;;;;;;10.30;63.92;100227.55;126274;1099;104175;-82
2021/10/22 04:09:32;;;;;;;41.87;23.27;;;;;;;10.31;64.30;100231.95;126285;1099;104675;-81
2021/10/22 04:12:01;;;;;;;41.43;23.73;;;;;;;10.29;63.94;100233.66;126251;1099;104140;-82
2021/10/22 04:14:31;;;;;;;41.13;23.80;;;;;;;10.21;64.36;100242.14;126105;1099;104137;-82
2021/10/22 04:17:00;;;;;;;41.70;23.40;;;;;;;10.07;63.97;100233.82;126089;1099;105479;-82
2021/10/22 04:19:28;;;;;;;43.30;24.10;;;;;;;9.98;64.38;100237.88;126142;1099;104165;-82
2021/10/22 04:21:58;;;;;;;57.97;26.33;;;;;;;9.94;64.05;100256.94;126105;1099;104153;-82
2021/10/22 04:24:26;;;;;;;60.90;25.97;;;;;;;9.91;64.14;100255.13;125166;1099;104255;-82
2021/10/22 04:26:54;;;;;;;42.50;23.57;;;;;;;9.89;64.58;100256.78;125213;1102;104256;-82
2021/10/22 04:29:22;;;;;;;46.87;24.60;;;;;;;9.91;64.79;100262.99;125121;1102;104348;-82
2021/10/22 04:31:50;;;;;;;45.73;23.83;;;;;;;9.92;64.66;100259.52;125192;1102;104338;-82
2021/10/22 04:34:18;;;;;;;44.17;25.00;;;;;;;9.88;64.41;100274.25;125233;1102;104459;-83
2021/10/22 04:37:00;;;;;;;45.10;23.93;;;;;;;9.83;65.07;100272.30;125286;1102;104204;-82
2021/10/22 04:42:12;;;;;;;41.07;24.30;;;;;;;9.74;65.16;100274.59;125403;1102;104204;-85
2021/10/22 04:44:44;;;;;;;;;;;;;;;9.71;65.07;100268.41;126205;1099;104325;-85
2021/10/22 04:47:13;;;;;;;45.80;24.23;;;;;;;9.73;65.24;100272.83;125310;1102;104379;-86
2021/10/22 04:49:43;;;;;;;44.67;24.90;;;;;;;9.80;64.99;100274.80;125381;1102;104181;-85
2021/10/22 04:52:11;;;;;;;41.87;24.60;;;;;;;9.86;65.18;100275.02;125043;1102;104416;-84
2021/10/22 04:54:42;;;;;;;50.07;24.77;;;;;;;9.88;65.25;100266.39;124975;1105;104213;-84
2021/10/22 04:57:10;;;;;;;46.33;25.37;;;;;;;9.91;64.84;100273.48;124970;1105;104237;-85
2021/10/22 04:59:40;;;;;;;49.37;25.97;;;;;;;9.94;64.88;100278.83;124999;1105;101935;-84
2021/10/22 05:02:08;;;;;;;45.17;23.60;;;;;;;9.92;64.90;100283.10;125016;1102;104399;-85
2021/10/22 05:04:36;;;;;;;40.07;24.07;;;;;;;9.89;65.45;100280.38;125005;1105;104403;-85
2021/10/22 05:07:05;;;;;;;52.13;25.20;;;;;;;9.89;65.14;100285.61;124875;1105;104159;-85
2021/10/22 05:09:37;;;;;;;39.60;23.47;;;;;;;9.87;65.58;100287.30;124967;1105;104210;-84
2021/10/22 05:12:09;;;;;;;40.70;23.60;;;;;;;9.87;65.31;100282.06;125054;1105;104379;-84
2021/10/22 05:14:43;;;;;;;50.30;27.37;;;;;;;9.96;65.71;100281.50;125346;1102;104399;-85
2021/10/22 05:17:12;;;;;;;43.50;25.00;;;;;;;9.99;65.66;100292.97;124996;1102;104492;-85
2021/10/22 05:19:40;;;;;;;40.60;23.93;;;;;;;9.98;65.21;100295.54;125227;1102;104226;-83
2021/10/22 05:22:09;;;;;;;48.75;26.35;;;;;;;9.98;65.25;100296.42;125296;1102;104165;-83
2021/10/22 05:24:41;;;;;;;45.83;26.07;;;;;;;9.98;65.77;100299.05;125230;1101;104203;-83
2021/10/22 05:27:26;;;;;;;42.35;25.70;;;;;;;10.04;65.95;100298.37;125275;1102;104319;-83
2021/10/22 05:29:54;;;;;;;43.43;25.77;;;;;;;10.11;65.52;100302.09;125219;1102;104294;-79
2021/10/22 05:32:25;;;;;;;46.27;25.13;;;;;;;10.18;65.51;100302.35;125214;1103;104156;-80
2021/10/22 05:34:56;;;;;;;46.02;26.02;;;;;;;10.26;65.41;100307.86;125172;1102;104191;-80
2021/10/22 05:37:29;;;;;;;44.40;25.17;;;;;;;10.33;65.40;100314.23;125093;1102;104271;-79
2021/10/22 05:40:01;;;;;;;46.83;25.97;;;;;;;10.32;65.27;100318.55;125343;1099;102817;-83
2021/10/22 05:42:36;;;;;;;48.90;27.57;;;;;;;10.35;65.33;100321.31;125166;1099;104280;-80
2021/10/22 05:45:09;;;;;;;50.10;28.10;;;;;;;10.41;66.11;100334.64;125270;1098;104501;-79
2021/10/22 05:47:41;;;;;;;48.47;27.37;;;;;;;10.50;65.68;100318.33;125847;1099;104235;-80
2021/10/22 05:50:14;;;;;;;50.60;27.67;;;;;;;10.59;66.09;100322.97;125196;1099;104179;-80
2021/10/22 05:52:48;;;;;;;50.92;26.48;;;;;;;10.64;65.74;100324.00;125159;1100;104176;-81
2021/10/22 05:55:17;;;;;;;53.93;29.23;;;;;;;10.67;65.76;100321.47;125268;1099;104325;-82
2021/10/22 05:57:59;;;;;;;55.97;29.43;;;;;;;10.69;65.97;100326.77;125349;1102;104454;-84
2021/10/22 06:00:31;;;;;;;61.47;29.90;;;;;;;10.75;65.59;100330.51;125213;1099;104207;-80
2021/10/22 06:03:03;;;;;;;57.23;30.43;;;;;;;10.79;65.74;100327.12;126129;1097;104149;-80
2021/10/22 06:05:34;;;;;;;58.87;28.97;;;;;;;10.83;66.05;100337.72;126043;1099;104677;-82
2021/10/22 06:08:10;;;;;;;58.87;29.63;;;;;;;10.78;65.83;100322.73;126071;1099;104178;-80
2021/10/22 06:10:40;;;;;;;55.33;30.33;;;;;;;10.77;65.72;100335.81;126005;1099;104399;-80
2021/10/22 06:13:10;;;;;;;59.00;30.33;;;;;;;10.76;65.85;100345.39;126139;1099;104595;-80
2021/10/22 06:15:40;;;;;;;58.60;30.23;;;;;;;10.82;66.26;100338.58;126225;1099;104181;-82
2021/10/22 06:18:13;;;;;;;62.43;30.37;;;;;;;10.90;66.10;100340.59;126101;1099;102771;-83
2021/10/22 06:20:49;;;;;;;56.77;30.70;;;;;;;11.04;65.79;100338.40;126071;1099;104173;-81
2021/10/22 06:26:01;;;;;;;57.20;30.47;;;;;;;11.36;65.74;100341.13;125919;1099;104271;-80
2021/10/22 06:28:35;;;;;;;61.77;31.13;;;;;;;11.53;65.77;100348.60;125908;1099;104153;-81
2021/10/22 06:31:06;;;;;;;63.27;32.53;;;;;;;11.69;65.73;100349.09;125889;1099;104223;-80
2021/10/22 06:33:36;;;;;;;64.50;32.27;;;;;;;11.85;65.68;100342.53;126015;1099;104294;-80
2021/10/22 06:36:08;;;;;;;59.63;31.53;;;;;;;12.00;65.64;100342.11;125954;1099;104274;-80
2021/10/22 06:38:39;;;;;;;57.00;30.35;;;;;;;12.16;65.69;100342.52;125845;1099;104165;-81
2021/10/22 06:41:09;;;;;;;58.40;31.33;;;;;;;12.30;65.56;100348.16;126038;1099;104162;-78
2021/10/22 06:43:41;;;;;;;64.30;32.27;;;;;;;12.49;65.35;100352.14;126026;1099;104589;-80
2021/10/22 06:46:12;;;;;;;59.33;31.03;;;;;;;12.63;65.42;100350.73;126075;1099;104303;-79
2021/10/22 06:48:44;;;;;;;60.40;30.97;;;;;;;12.69;65.44;100357.91;126247;1097;104134;-80
2021/10/22 06:51:15;;;;;;;58.47;30.13;;;;;;;12.71;64.75;100356.20;126162;1099;104175;-80
2021/10/22 06:53:45;;;;;;;58.90;32.05;;;;;;;12.72;64.76;100355.36;126166;1099;104213;-79
2021/10/22 06:56:17;;;;;;;56.20;32.20;;;;;;;12.72;64.59;100366.77;126228;1099;104140;-80
2021/10/22 06:58:49;;;;;;;64.63;33.53;;;;;;;12.75;65.13;100368.59;126085;1099;104311;-78
2021/10/22 07:01:24;;;;;;;66.57;35.03;;;;;;;12.81;64.62;100363.48;126224;1099;104197;-79
2021/10/22 07:03:53;;;;;;;;;;;;;;;12.90;64.68;100368.97;126173;1097;102036;-78
2021/10/22 07:09:08;;;;;;;62.73;32.98;;;;;;;13.14;64.64;100365.13;126275;1099;104143;-79
2021/10/22 07:11:38;;;;;;;65.27;35.13;;;;;;;13.26;64.51;100356.59;126348;1097;104265;-78
2021/10/22 07:14:11;;;;;;;63.10;33.70;;;;;;;13.39;64.14;100360.45;126204;1099;104770;-81
2021/10/22 07:16:42;;;;;;;64.00;35.00;;;;;;;13.50;64.24;100368.59;126109;1099;104172;-81
2021/10/22 07:19:13;;;;;;;68.73;34.03;;;;;;;13.61;64.16;100365.31;126067;1099;104134;-80
2021/10/22 07:21:48;;;;;;;61.67;33.60;;;;;;;13.80;63.86;100360.42;126293;1099;104300;-79
2021/10/22 07:24:22;;;;;;;64.30;33.17;;;;;;;13.95;64.19;100362.49;126107;1099;104242;-78
2021/10/22 07:26:54;;;;;;;64.50;31.97;;;;;;;14.10;64.28;100370.70;126267;1099;104258;-79
2021/10/22 07:29:25;;;;;;;59.23;31.00;;;;;;;14.24;63.57;100377.98;126075;1099;104192;-79
2021/10/22 07:31:58;;;;;;;65.17;32.33;;;;;;;14.36;63.16;100376.45;126220;1099;111720;-79
2021/10/22 07:34:33;;;;;;;63.40;33.93;;;;;;;14.51;62.98;100380.25;126086;1099;104149;-78
2021/10/22 07:37:05;;;;;;;56.80;33.85;;;;;;;14.64;62.79;100370.81;126237;1099;104142;-79
2021/10/22 07:39:35;;;;;;;;;;;;;;;14.74;62.35;100376.28;125993;1099;104303;-79
2021/10/22 07:42:04;;;;;;;60.47;33.50;;;;;;;14.84;63.53;100372.03;126157;1099;104182;-80
2021/10/22 07:44:36;;;;;;;61.75;33.90;;;;;;;14.91;62.50;100373.91;126130;1099;104284;-78
2021/10/22 07:47:10;;;;;;;58.37;34.63;;;;;;;15.04;62.74;100371.47;126103;1099;104274;-77
2021/10/22 07:49:38;;;;;;;68.63;34.67;;;;;;;15.13;63.00;100366.32;126162;1099;104137;-77
2021/10/22 07:52:09;;;;;;;71.80;35.17;;;;;;;15.27;62.87;100371.81;125916;1099;104291;-79
2021/10/22 07:54:42;;;;;;;51.60;27.55;;;;;;;15.39;62.27;100371.95;126106;1099;104196;-78
2021/10/22 07:57:15;;;;;;;59.47;30.07;;;;;;;15.56;62.61;100381.89;126255;1099;104134;-79
2021/10/22 07:59:45;;;;;;;49.50;26.77;;;;;;;15.69;62.03;100378.55;126124;1097;104201;-79
2021/10/22 08:02:14;;;;;;;46.30;22.63;;;;;;;15.88;61.30;100378.78;126003;1099;104268;-78
2021/10/22 08:04:45;;;;;;;47.70;23.53;;;;;;;16.09;61.02;100378.16;126186;1099;104268;-79
2021/10/22 08:07:16;;;;;;;43.87;23.50;;;;;;;16.30;60.76;100382.81;126312;1099;104262;-79
2021/10/22 08:09:48;;;;;;;53.03;29.13;;;;;;;16.50;60.35;100382.98;126223;1099;104159;-80
2021/10/22 08:12:20;;;;;;;54.57;27.60;;;;;;;16.69;60.29;100384.07;126168;1099;104354;-79
2021/10/22 08:14:50;;;;;;;49.55;28.55;;;;;;;16.84;59.88;100381.55;126229;1099;104143;-78
2021/10/22 08:17:28;;;;;;;31.97;16.63;;;;;;;17.00;59.58;100379.02;126256;1099;104137;-80
2021/10/22 08:20:00;;;;;;;42.47;21.90;;;;;;;17.17;59.38;100364.16;126222;1099;104165;-78
2021/10/22 08:22:31;;;;;;;28.37;14.97;;;;;;;17.35;59.22;100367.78;126240;1099;104286;-78
2021/10/22 08:25:04;;;;;;;24.90;13.17;;;;;;;17.52;58.62;100374.06;126303;1099;104166;-79
2021/10/22 08:27:39;;;;;;;31.73;13.67;;;;;;;17.69;57.75;100381.23;126203;1099;104496;-78
2021/10/22 08:30:21;;;;;;;23.00;10.50;;;;;;;17.85;57.67;100382.17;126246;1099;104274;-81
2021/10/22 08:32:55;;;;;;;22.40;9.77;;;;;;;18.02;57.83;100376.97;126211;1099;104207;-80
2021/10/22 08:35:31;;;;;;;19.00;9.38;;;;;;;18.18;57.33;100378.77;126249;1099;104181;-79
2021/10/22 08:38:06;;;;;;;21.07;9.30;;;;;;;18.32;56.62;100369.09;126219;1099;104140;-81
2021/10/22 08:40:36;;;;;;;18.57;8.70;;;;;;;18.48;56.27;100364.67;126083;1099;104210;-81
2021/10/22 08:43:09;;;;;;;18.33;8.63;;;;;;;18.63;55.85;100360.25;126123;1099;104194;-79
2021/10/22 08:45:39;;;;;;;21.13;8.63;;;;;;;18.75;55.60;100354.94;126010;1099;104139;-80
2021/10/22 08:48:13;;;;;;;19.83;9.00;;;;;;;18.89;54.77;100352.31;125911;1099;104426;-80
2021/10/22 08:50:43;;;;;;;17.53;8.73;;;;;;;19.03;54.21;100353.17;126063;1099;104142;-78
2021/10/22 08:53:14;;;;;;;17.83;8.20;;;;;;;19.16;54.40;100353.16;125856;1099;104685;-79
2021/10/22 08:55:45;;;;;;;16.93;8.20;;;;;;;19.30;53.94;100354.00;126141;1099;104142;-80
2021/10/22 08:58:19;;;;;;;18.50;8.00;;;;;;;19.40;53.39;100350.44;126254;1099;104191;-81
2021/10/22 09:00:52;;;;;;;16.97;8.17;;;;;;;19.48;52.85;100350.42;126322;1099;104149;-80
2021/10/22 09:03:22;;;;;;;;;;;;;;;19.59;52.78;100345.06;126281;1099;104149;-78
2021/10/22 09:06:03;;;;;;;17.63;6.97;;;;;;;19.69;53.05;100345.90;126231;1099;104274;-80
2021/10/22 09:08:37;;;;;;;13.73;6.70;;;;;;;19.77;51.41;100341.45;126143;1099;104153;-79
2021/10/22 09:11:23;;;;;;;15.87;6.77;;;;;;;19.82;51.72;100346.75;126230;1098;104220;-79
2021/10/22 09:14:13;;;;;;;11.93;6.17;;;;;;;19.90;51.24;100339.64;126251;1098;113061;-79
2021/10/22 09:16:48;;;;;;;14.20;6.20;;;;;;;20.01;50.86;100340.45;126235;1099;104130;-80
2021/10/22 09:19:33;;;;;;;12.80;6.60;;;;;;;20.11;51.88;100339.48;126268;1099;104162;-79
2021/10/22 09:22:22;;;;;;;12.27;5.90;;;;;;;20.18;50.45;100335.03;126016;1099;104383;-79
2021/10/22 09:24:54;;;;;;;12.77;6.70;;;;;;;20.27;50.01;100336.73;126161;1099;104134;-79
2021/10/22 09:27:39;;;;;;;15.40;6.97;;;;;;;20.32;49.06;100337.61;126048;1099;104140;-79
2021/10/22 09:30:11;;;;;;;13.25;6.50;;;;;;;20.37;48.79;100338.45;126217;1099;104246;-78
2021/10/22 09:32:51;;;;;;;15.60;6.87;;;;;;;20.45;48.34;100333.06;126033;1099;104367;-79
2021/10/22 09:35:40;;;;;;;17.03;7.00;;;;;;;20.52;48.22;100332.13;126094;1099;104146;-80
2021/10/22 09:38:20;;;;;;;14.87;7.30;;;;;;;20.61;48.37;100339.15;125948;1099;104172;-79
2021/10/22 09:40:52;;;;;;;14.30;6.77;;;;;;;20.67;47.85;100338.26;125968;1099;104156;-79
2021/10/22 09:43:29;;;;;;;14.35;6.90;;;;;;;20.70;47.82;100336.44;126100;1097;104224;-79
2021/10/22 09:46:13;;;;;;;12.10;6.57;;;;;;;20.76;48.13;100327.52;126023;1099;104261;-80
2021/10/22 09:48:43;;;;;;;21.53;7.13;;;;;;;20.83;47.04;100322.12;126044;1099;104136;-76
2021/10/22 09:51:23;;;;;;;14.70;6.90;;;;;;;20.90;47.63;100328.27;126098;1099;104560;-78
2021/10/22 09:53:53;;;;;;;13.27;6.57;;;;;;;20.97;47.13;100331.75;126100;1099;104200;-78
2021/10/22 09:56:24;;;;;;;13.00;6.43;;;;;;;21.01;46.71;100328.16;126240;1099;104171;-79
2021/10/22 09:58:59;;;;;;;13.83;6.90;;;;;;;21.05;45.46;100324.58;126265;1099;104137;-80
2021/10/22 10:01:35;;;;;;;12.80;6.70;;;;;;;21.06;45.36;100315.66;126234;1098;104191;-78
2021/10/22 10:04:14;;;;;;;12.70;7.03;;;;;;;21.09;45.33;100314.75;126040;1099;104153;-79
2021/10/22 10:06:45;;;;;;;13.80;6.40;;;;;;;21.13;44.91;100312.03;126138;1099;104290;-78
2021/10/22 10:09:15;;;;;;;14.07;6.70;;;;;;;21.21;45.75;100319.05;126000;1099;104188;-80
2021/10/22 10:11:45;;;;;;;12.37;6.07;;;;;;;21.28;43.42;100329.64;125782;1099;104175;-78
2021/10/22 10:14:17;;;;;;;12.40;6.50;;;;;;;21.29;44.97;100309.20;125913;1099;105430;-77
2021/10/22 10:16:48;;;;;;;12.27;6.43;;;;;;;21.32;44.60;100303.83;125834;1099;104284;-76
2021/10/22 10:19:24;;;;;;;13.47;6.93;;;;;;;21.34;44.89;100299.34;125973;1099;104423;-76
2021/10/22 10:21:56;;;;;;;14.67;6.77;;;;;;;21.37;43.78;100293.97;125831;1099;104156;-77
2021/10/22 10:24:32;;;;;;;16.37;6.93;;;;;;;21.39;45.04;100299.29;125944;1099;104892;-76
2021/10/22 10:27:11;;;;;;;13.83;6.73;;;;;;;21.36;44.00;100292.19;126094;1099;104140;-77
2021/10/22 10:29:43;;;;;;;15.97;7.23;;;;;;;21.42;44.56;100288.58;126066;1099;104191;-76
2021/10/22 10:32:14;;;;;;;12.97;6.87;;;;;;;21.44;43.90;100295.67;126130;1099;104146;-77
2021/10/22 10:34:47;;;;;;;14.90;7.30;;;;;;;21.46;43.25;100299.20;126039;1099;104251;-77
2021/10/22 10:37:32;;;;;;;16.50;7.60;;;;;;;21.45;44.02;100294.75;126049;1099;104319;-78
2021/10/22 10:40:21;;;;;;;14.17;7.27;;;;;;;21.46;43.37;100293.86;126115;1099;104306;-77
2021/10/22 10:43:03;;;;;;;15.10;8.07;;;;;;;21.48;43.30;100301.84;125926;1099;104197;-78
2021/10/22 10:45:44;;;;;;;15.90;7.70;;;;;;;21.51;43.65;100294.71;126025;1097;104178;-78
2021/10/22 10:48:18;;;;;;;16.50;7.13;;;;;;;21.56;42.89;100291.11;126046;1099;104213;-76
2021/10/22 10:50:51;;;;;;;16.77;7.10;;;;;;;21.62;43.07;100296.38;126191;1099;104140;-76
2021/10/22 10:53:31;;;;;;;18.05;7.20;;;;;;;21.64;43.03;100291.88;126093;1099;104204;-75
2021/10/22 10:56:01;;;;;;;34.53;9.70;;;;;;;21.68;43.32;100288.28;126137;1098;104165;-75
2021/10/22 10:58:29;;;;;;;17.17;7.10;;;;;;;21.69;43.05;100293.60;126175;1096;104194;-75
2021/10/22 11:01:00;;;;;;;16.47;7.53;;;;;;;21.73;42.72;100286.42;126048;1099;104175;-76
2021/10/22 11:03:43;;;;;;;14.40;7.10;;;;;;;21.71;42.35;100281.10;125925;1099;104214;-77
2021/10/22 11:06:33;;;;;;;20.40;7.30;;;;;;;21.70;42.30;100273.11;125964;1099;108834;-77
2021/10/22 11:09:08;;;;;;;16.97;7.33;;;;;;;21.72;42.76;100273.97;125979;1099;104166;-78
2021/10/22 11:11:41;;;;;;;16.43;7.23;;;;;;;21.73;41.68;100265.94;126106;1099;104137;-79
2021/10/22 11:14:22;;;;;;;15.73;7.90;;;;;;;21.76;42.03;100273.03;126185;1099;104203;-77
2021/10/22 11:17:01;;;;;;;14.83;7.33;;;;;;;21.76;41.71;100269.48;126167;1099;117636;-79
2021/10/22 11:19:36;;;;;;;15.80;7.70;;;;;;;21.75;41.91;100268.58;126229;1099;104361;-79
2021/10/22 11:22:10;;;;;;;17.47;7.83;;;;;;;21.76;41.90;100277.50;126234;1099;104152;-78
2021/10/22 11:24:43;;;;;;;14.50;7.03;;;;;;;21.75;41.82;100267.70;125309;1099;104217;-78